Woody, CA (93287)

8:48 PM PST on November 22, 2014 (GMT -0800)
Bull Run Mouth | Change Station
CLOSE
Current Station
Personal Weather Station
Location: Kernville, CA
Elevation: 2726 ft
Nearby Weather Stations
Active Advisory: Wind Advisory Active Notice: Public Information Statement

Elev 2726 ft 35.78 °N, 118.44 °W | Updated 41 seconds ago

Mostly Cloudy
Mostly Cloudy
61.4 °F
Feels Like 61.4 °F
N
1.0
Wind Variable Wind from WNW

Today
High -- | Low -- °F
--% Chance of Precip.
Yesterday
High -- | Low -- °F
Precip. -- in
6:38 AM 4:44 PM
New Moon, 1% visible
Pressure 30.11 in
Visibility 10.0 miles
Clouds Overcast 2900 ft
Dew Point 44 °F
Humidity 52%
Rainfall 0.00 in
Snow Depth Not available.
UV 0.0 out of 12
Pollen 2.80 out of 12
Air Quality Not available.
Flu Activity Not available.
SPECI KBFL 230404Z 34008KT 10SM OVC029 16/08 A3011 RMK AO2 T01610083

More Conditions Fewer Conditions

Pressure 30.11 in
Visibility 10.0 miles
Clouds Overcast 2900 ft
Dew Point 44 °F
Humidity 52%
Rainfall 0.00 in
Snow Depth Not available.
UV 0.0 out of 12
Pollen 2.80 out of 12
Air Quality Not available.
Flu Activity Not available.
SPECI KBFL 230404Z 34008KT 10SM OVC029 16/08 A3011 RMK AO2 T01610083

More Conditions Fewer Conditions

10-Day Weather Forecast

Almanac

Astronomy

Nov. 22, 2014 Rise Set
Actual Time
Civil Twilight
Nautical Twilight
Astronomical Twilight
Moon
Length of Visible Light
Length of Day
Tomorrow will be .
, % of the Moon is Illuminated

Today's Extremes

State Highs State Lows

Community

WunderPhotos

Upload Photos

1,773,003 photos uploaded!

WunderBlogs® & News

Nearby

Air Quality

  Air Quality AQ Index Pollutant
Not available.

Snow Depth

Station Depth Elevation

Earthquake Activity

City Distance Mag. Time & Date
Minimum magnitude displayed is 2.5.

Coastal Water Temperatures

Place Temperature

Nearby Weather Stations